createdAt,value
2023-02-19T00:03:17.974Z,8.80
2023-02-19T00:08:09.916Z,8.88
2023-02-19T00:13:01.752Z,9.10
2023-02-19T00:17:53.597Z,7.95
2023-02-19T00:22:45.487Z,8.30
2023-02-19T00:27:37.305Z,7.93
2023-02-19T00:32:29.488Z,8.43
2023-02-19T00:37:21.265Z,8.17
2023-02-19T00:42:13.125Z,8.85
2023-02-19T00:47:05.024Z,8.05
2023-02-19T00:51:56.933Z,8.52
2023-02-19T00:56:49.343Z,7.65
2023-02-19T01:01:41.962Z,8.50
2023-02-19T01:06:34.794Z,9.02
2023-02-19T01:11:27.769Z,7.93
2023-02-19T01:16:22.220Z,8.00
2023-02-19T01:21:20.167Z,7.82
2023-02-19T01:26:17.682Z,8.40
2023-02-19T01:31:14.495Z,8.48
2023-02-19T01:36:07.393Z,8.32
2023-02-19T01:41:04.999Z,8.32
2023-02-19T01:45:56.939Z,8.95
2023-02-19T01:50:56.016Z,9.27
2023-02-19T01:55:48.952Z,8.93
2023-02-19T02:00:41.293Z,9.52
2023-02-19T02:05:57.883Z,9.38
2023-02-19T02:10:50.872Z,9.15
2023-02-19T02:16:00.056Z,8.70
2023-02-19T02:21:10.564Z,8.40
2023-02-19T02:26:19.979Z,8.25
2023-02-19T02:31:18.706Z,7.88
2023-02-19T02:36:12.589Z,8.20
2023-02-19T02:41:05.755Z,7.15
2023-02-19T02:45:58.114Z,8.32
2023-02-19T02:50:54.820Z,7.60
2023-02-19T02:55:50.096Z,7.85
2023-02-19T03:01:02.984Z,7.20
2023-02-19T03:05:59.392Z,7.72
2023-02-19T03:11:24.638Z,7.75
2023-02-19T03:16:55.806Z,7.65
2023-02-19T03:22:18.082Z,7.93
2023-02-19T03:27:11.130Z,7.72
2023-02-19T03:32:19.377Z,8.18
2023-02-19T03:37:25.287Z,8.65
2023-02-19T03:42:57.549Z,8.15
2023-02-19T03:48:04.967Z,9.20
2023-02-19T03:53:01.361Z,8.40
2023-02-19T03:58:03.335Z,7.65
2023-02-19T04:03:07.407Z,7.75
2023-02-19T04:08:09.224Z,8.43
2023-02-19T04:13:13.251Z,8.85
2023-02-19T04:18:08.081Z,8.85
2023-02-19T04:23:00.046Z,7.90
2023-02-19T04:27:51.993Z,8.33
2023-02-19T04:32:43.802Z,8.02
2023-02-19T04:37:35.790Z,8.10
2023-02-19T04:42:27.929Z,8.00
2023-02-19T04:47:19.712Z,7.53
2023-02-19T04:52:11.598Z,8.25
2023-02-19T04:57:03.706Z,8.32
2023-02-19T05:01:55.719Z,8.10
2023-02-19T05:06:47.609Z,7.90
2023-02-19T05:11:39.608Z,8.93
2023-02-19T05:16:31.493Z,9.00
2023-02-19T05:21:23.505Z,8.98
2023-02-19T05:26:18.177Z,8.70
2023-02-19T05:31:12.089Z,8.38
2023-02-19T05:36:07.114Z,8.57
2023-02-19T05:41:19.312Z,8.45
2023-02-19T05:46:12.757Z,8.80
2023-02-19T05:51:12.525Z,9.15
2023-02-19T05:56:04.973Z,9.05
2023-02-19T06:00:57.154Z,11.00
2023-02-19T06:05:49.082Z,12.95
2023-02-19T06:10:44.528Z,13.82
2023-02-19T06:15:37.094Z,13.43
2023-02-19T06:20:29.823Z,13.82
2023-02-19T06:25:21.741Z,12.73
2023-02-19T06:30:13.879Z,14.00
2023-02-19T06:35:06.281Z,12.40
2023-02-19T06:39:58.185Z,14.35
2023-02-19T06:44:50.364Z,14.07
2023-02-19T06:49:42.400Z,14.20
2023-02-19T06:54:34.363Z,14.93
2023-02-19T06:59:26.691Z,15.43
2023-02-19T07:04:18.786Z,15.90
2023-02-19T07:09:11.406Z,17.00
2023-02-19T07:14:05.257Z,16.08
2023-02-19T07:18:58.798Z,15.55
2023-02-19T07:23:50.665Z,14.93
2023-02-19T07:28:43.891Z,15.00
2023-02-19T07:33:35.905Z,14.43
2023-02-19T07:38:28.058Z,14.23
2023-02-19T07:43:20.021Z,14.77
2023-02-19T07:48:12.178Z,12.98
2023-02-19T07:53:04.022Z,14.23
2023-02-19T07:57:58.730Z,13.88
2023-02-19T08:03:03.364Z,13.13
2023-02-19T08:07:55.320Z,12.52
2023-02-19T08:13:19.537Z,12.32
2023-02-19T08:18:11.783Z,12.27
2023-02-19T08:23:03.697Z,12.23
2023-02-19T08:27:55.552Z,11.27
2023-02-19T08:32:47.337Z,11.10
2023-02-19T08:37:39.403Z,11.85
2023-02-19T08:42:31.212Z,11.60
2023-02-19T08:47:23.055Z,10.65
2023-02-19T08:52:14.982Z,10.70
2023-02-19T08:57:06.806Z,10.60
2023-02-19T09:01:59.271Z,10.40
2023-02-19T09:06:51.266Z,9.30
2023-02-19T09:11:43.356Z,9.73
2023-02-19T09:16:36.242Z,9.27
2023-02-19T09:26:19.984Z,8.82
2023-02-19T09:31:15.799Z,8.35
2023-02-19T09:36:08.080Z,8.23
2023-02-19T09:41:00.373Z,8.17
2023-02-19T09:46:05.008Z,8.87
2023-02-19T09:50:57.528Z,8.02
2023-02-19T09:55:49.599Z,8.02
2023-02-19T10:00:41.548Z,7.50
2023-02-19T10:05:34.882Z,7.47
2023-02-19T10:10:34.664Z,7.70
2023-02-19T10:15:38.168Z,7.85
2023-02-19T10:20:30.071Z,7.55
2023-02-19T10:25:21.902Z,6.75
2023-02-19T10:30:25.222Z,7.63
2023-02-19T10:35:17.212Z,7.65
2023-02-19T10:40:21.218Z,6.80
2023-02-19T10:45:23.266Z,7.25
2023-02-19T10:50:27.176Z,6.75
2023-02-19T10:55:29.839Z,7.45
2023-02-19T11:00:29.745Z,7.35
2023-02-19T11:05:21.938Z,6.45
2023-02-19T11:10:28.847Z,7.10
2023-02-19T11:15:21.751Z,6.75
2023-02-19T11:25:17.877Z,6.47
2023-02-19T11:30:33.878Z,5.93
2023-02-19T11:35:27.203Z,6.78
2023-02-19T11:40:19.063Z,5.75
2023-02-19T11:45:27.093Z,7.07
2023-02-19T11:50:27.545Z,6.50
2023-02-19T11:55:37.807Z,6.90
2023-02-19T12:00:31.069Z,6.88
2023-02-19T12:05:27.035Z,7.07
2023-02-19T12:10:44.652Z,6.05
2023-02-19T12:16:06.059Z,6.38
2023-02-19T12:21:18.324Z,5.97
2023-02-19T12:26:25.440Z,6.87
2023-02-19T12:31:17.401Z,6.32
2023-02-19T12:36:18.463Z,5.87
2023-02-19T12:41:31.575Z,6.35
2023-02-19T12:51:25.467Z,6.15
2023-02-19T12:56:35.595Z,6.43
2023-02-19T13:01:38.980Z,5.63
2023-02-19T13:07:07.335Z,5.78
2023-02-19T13:12:11.624Z,6.18
2023-02-19T13:17:16.700Z,5.68
2023-02-19T13:22:58.549Z,5.82
2023-02-19T13:28:03.296Z,5.47
2023-02-19T13:33:30.635Z,5.35
2023-02-19T13:38:22.790Z,5.70
2023-02-19T13:43:26.210Z,5.97
2023-02-19T13:48:23.955Z,5.25
2023-02-19T13:53:44.954Z,5.28
2023-02-19T13:58:39.925Z,6.18
2023-02-19T14:03:37.797Z,5.65
2023-02-19T14:08:58.615Z,5.32
2023-02-19T14:13:50.932Z,5.90
2023-02-19T14:18:42.850Z,5.63
2023-02-19T14:23:34.724Z,6.20
2023-02-19T14:28:38.400Z,5.15
2023-02-19T14:33:40.198Z,5.20
2023-02-19T14:39:10.797Z,6.10
2023-02-19T14:44:03.654Z,6.13
2023-02-19T14:53:47.455Z,5.43
2023-02-19T14:58:40.892Z,6.37
2023-02-19T15:03:37.894Z,5.72
2023-02-19T15:08:37.634Z,6.20
2023-02-19T15:13:29.990Z,5.70
2023-02-19T15:18:23.953Z,6.45
2023-02-19T15:23:26.143Z,5.63
2023-02-19T15:28:32.979Z,5.50
2023-02-19T15:33:27.395Z,5.20
2023-02-19T15:38:19.617Z,5.72
2023-02-19T15:43:26.139Z,5.70
2023-02-19T15:48:25.014Z,4.88
2023-02-19T15:53:24.199Z,5.28
2023-02-19T15:58:28.077Z,6.05
2023-02-19T16:03:22.512Z,5.35
2023-02-19T16:08:14.305Z,5.32
2023-02-19T16:13:08.283Z,5.43
2023-02-19T16:18:00.609Z,4.93
2023-02-19T16:22:57.736Z,5.50
2023-02-19T16:27:49.610Z,5.30
2023-02-19T16:32:41.925Z,5.07
2023-02-19T16:37:33.750Z,5.60
2023-02-19T16:42:25.827Z,5.20
2023-02-19T16:47:24.886Z,5.20
2023-02-19T16:52:17.012Z,4.82
2023-02-19T16:57:08.854Z,5.80
2023-02-19T17:02:01.090Z,5.38
2023-02-19T17:06:52.967Z,6.15
2023-02-19T17:11:44.805Z,6.63
2023-02-19T17:16:40.380Z,6.72
2023-02-19T17:21:33.600Z,6.15
2023-02-19T17:26:30.398Z,6.40
2023-02-19T17:31:22.753Z,7.32
2023-02-19T17:36:20.294Z,6.60
2023-02-19T17:41:12.503Z,6.80
2023-02-19T17:46:04.991Z,6.15
2023-02-19T17:50:57.057Z,7.03
2023-02-19T17:55:48.887Z,6.60
2023-02-19T18:00:40.707Z,7.28
2023-02-19T18:05:32.514Z,7.40
2023-02-19T18:10:24.363Z,7.00
2023-02-19T18:15:19.367Z,7.30
2023-02-19T18:20:26.502Z,8.55
2023-02-19T18:25:19.411Z,7.22
2023-02-19T18:35:04.441Z,8.95
2023-02-19T18:39:56.515Z,7.97
2023-02-19T18:44:49.165Z,9.00
2023-02-19T18:49:44.745Z,7.95
2023-02-19T18:54:36.622Z,9.10
2023-02-19T18:59:28.549Z,8.18
2023-02-19T19:04:20.534Z,7.70
2023-02-19T19:09:12.655Z,9.13
2023-02-19T19:14:04.849Z,8.60
2023-02-19T19:18:56.936Z,8.73
2023-02-19T19:23:48.967Z,8.27
2023-02-19T19:28:44.427Z,8.70
2023-02-19T19:33:36.191Z,8.63
2023-02-19T19:38:28.014Z,8.18
2023-02-19T19:43:19.834Z,8.60
2023-02-19T19:48:11.693Z,9.07
2023-02-19T19:53:03.699Z,9.07
2023-02-19T19:57:55.535Z,7.53
2023-02-19T20:02:47.373Z,9.20
2023-02-19T20:07:39.634Z,8.07
2023-02-19T20:12:31.652Z,8.25
2023-02-19T20:17:27.693Z,8.70
2023-02-19T20:22:19.998Z,8.77
2023-02-19T20:27:11.973Z,8.90
2023-02-19T20:32:04.055Z,8.03
2023-02-19T20:36:55.964Z,7.83
2023-02-19T20:41:49.499Z,8.60
2023-02-19T20:46:42.622Z,7.93
2023-02-19T20:51:46.322Z,7.93
2023-02-19T20:56:44.302Z,7.88
2023-02-19T21:01:36.227Z,7.40
2023-02-19T21:06:28.197Z,9.13
2023-02-19T21:11:20.005Z,8.10
2023-02-19T21:16:12.166Z,7.70
2023-02-19T21:21:04.298Z,8.02
2023-02-19T21:25:56.343Z,7.90
2023-02-19T21:30:48.868Z,8.10
2023-02-19T21:35:40.603Z,8.35
2023-02-19T21:40:32.967Z,7.82
2023-02-19T21:45:24.858Z,7.53
2023-02-19T21:50:16.738Z,8.90
2023-02-19T21:55:08.664Z,7.88
2023-02-19T22:00:00.692Z,8.27
2023-02-19T22:04:57.696Z,7.93
2023-02-19T22:09:50.326Z,7.90
2023-02-19T22:14:42.270Z,8.38
2023-02-19T22:19:34.140Z,8.87
2023-02-19T22:24:25.966Z,8.65
2023-02-19T22:29:18.062Z,9.18
2023-02-19T22:34:09.957Z,9.10
2023-02-19T22:39:01.977Z,9.17
2023-02-19T22:43:57.807Z,9.57
2023-02-19T22:48:49.825Z,9.75
2023-02-19T22:53:52.558Z,9.80
2023-02-19T22:58:44.691Z,11.00
2023-02-19T23:03:55.451Z,10.93
2023-02-19T23:08:47.302Z,11.25
2023-02-19T23:13:41.589Z,10.90
2023-02-19T23:18:33.530Z,11.50
2023-02-19T23:23:25.625Z,11.77
2023-02-19T23:28:17.440Z,11.13
2023-02-19T23:33:09.276Z,11.93
2023-02-19T23:38:01.487Z,13.80
2023-02-19T23:42:54.878Z,11.43
2023-02-19T23:47:46.707Z,12.30
2023-02-19T23:52:38.657Z,12.48
2023-02-19T23:57:30.511Z,12.57
